Accueil
METAR-TAF:

METAR-TAF

Aéroports :

Aéroport international d'Exeter

Exeter, Angleterre

latitude: 50-44N, longitude: 003-25W, altitude: 30 m

Observation

Le bulletin a été fait il y a 39 minutes, à 10:20 UTC
Vent 8 kt de nord-est
Température 7°C
Humidité 76%
Pression 1025 hPa
Visibilité 10 km ou plus
pas de nuages en-dessous de 1500 mètres et pas de cumulonimbus.

METAR: EGTE 181020Z 05008KT CAVOK 07/03 Q1025

Heure: 10:59 (10:59 UTC)

Prévision

Le bulletin a été fait il y a 2 heures et 55 minutes, à 08:04 UTC
Prévision valable du 18 à 09 UTC au 18 à 18 UTC
Vent 9 kt de nord-est
Visibilité 10 km ou plus
pas de nuages en-dessous de 1500 mètres et pas de cumulonimbus.
Probabilité 30%
du 18 à 16 UTC au 18 à 18 UTC
Visibilité: 8000 m

TAF: EGTE 180804Z 1809/1818 04009KT CAVOK PROB30 1816/1818 8000

Observations et prévisions météorologiques de plus de 4000 aéroports (messages METAR et TAF).

Les stations disponibles sont représentées par des disques jaunes et rouges sur la carte.

Passer la souris dessus pour voir le nom de la station.

Cliquer dessus pour voir les observations et prévisions météorologiques.

Pour changer de carte: cliquez sur les boutons verts avec une croix noire pour zoomer, sur le bouton vert avec un tiret pour effectuer un zoom arrière, ou sur les flèches vertes pour les cartes adjacentes.


METAR-TAF: